9CA2 weather

Pioneers Memorial Hospital Heliport
Brawley, California, United States

Public forecast

Using degrees Fahrenheit for public forecast. Weather courtesy of forecast.io.

METAR (pilot weather report)

Closest report is Imperial County Airport, 7.6 nm (14.0 km) S. Retrieved 2019/08/23 22:53 UTC (49 minutes ago):

KIPL 232253Z AUTO 12011KT 10SM CLR 41/12 A2966 RMK AO2 SLP044 T04110117

TAF (pilot weather forecast)

Closest forecast is Imperial County Airport, 7.6 nm (14.0 km) S. Retrieved 2019/08/23 18:42 UTC (5 hours ago):

TAF KIPL 231740Z 2318/2418 13007KT P6SM SKC FM232200 15013G22KT P6SM FEW100 FM240400 13008KT P6SM FEW250